Joey Votto (1B, CIN)

Avg
0.242
HR
13
wOBA
0.345
nERD
1.04

Most Recent Player News

Cincinnati Reds first baseman Joey Votto went yard twice while tallying three RBI's and three runs scored as the Reds fell to the Chicago Cubs on Monday.

What It Means:

This was Votto's first time going yard since June 7, and the performance brings him up to 13 home runs, 39 RBI's and 43 runs scored on the season.

He ranks 72nd in the Majors with a 1.31 nERD, and is on pace for a career-worst .352 wOBA. We project him to hit .252/.359/.457 over the remainder of the season.

Source: Rotoworld.com
Posted on Tuesday, June 28th, 2016 at 9:25am EDT

Joey Votto Player Profile

Current Stats
Batting Average0.242
Hits64
SLUG0.436
OBP0.369
wOBA0.345
Statistical RankingsRank
Plate Appearances320#45
Runs43#44
Home Runs13#52
RBI39#71
Stolen Bases6#53
nERD1.04#84

Fantasy RankingsRank
Fantasy Score 4.24 #57
Projected Stats
Batting Average0.249
Hits134
SLUG0.443
OBP0.365
wOBA0.347
Statistical RankingsRank
Plate Appearances646#44
Runs85#37
Home Runs25#42
RBI76#69
Stolen Bases12#65
Batting Average0.249#214
OPS0.808#69

Fantasy RankingsRank
Fantasy Score 4.90 #51
Remaining This Season
Batting Average0.255
Hits70
SLUG0.451
OBP0.361
wOBA0.349
Statistical RankingsRank
Plate Appearances326#49
Runs42#38
Home Runs12#36
RBI37#69
Stolen Bases6#57
Batting Average0.255#162
OPS0.812#35

Fantasy RankingsRank
Fantasy Score 5.16 #37

Projections By Game

Date Opponent PA AB BB 1B 2B 3B HR R RBI SB HBP SO AVG
2016-04-04 Philadelphia 4.40 3.64 0.65 0.69 0.22 0.01 0.21 0.67 0.69 0.08 0.07 0.56 0.303
2016-04-06 Philadelphia 4.46 3.72 0.65 0.68 0.21 0.01 0.22 0.70 0.67 0.09 0.06 0.57 0.298
2016-04-07 Philadelphia 4.45 3.70 0.68 0.73 0.25 0.01 0.15 0.66 0.60 0.08 0.06 0.62 0.302
2016-04-08 Pittsburgh 4.37 3.55 0.73 0.64 0.24 0.03 0.12 0.51 0.53 0.06 0.07 0.98 0.286
2016-04-09 Pittsburgh 4.34 3.54 0.71 0.63 0.20 0.02 0.14 0.49 0.44 0.08 0.08 0.97 0.280
2016-04-10 Pittsburgh 4.42 3.63 0.66 0.67 0.22 0.02 0.15 0.58 0.52 0.07 0.11 0.83 0.291
2016-04-11 Chi. Cubs 4.38 3.66 0.62 0.71 0.21 0.02 0.15 0.57 0.56 0.06 0.08 0.92 0.299
2016-04-13 Chi. Cubs 4.47 3.66 0.72 0.67 0.19 0.03 0.20 0.63 0.60 0.09 0.06 0.86 0.297
2016-04-14 Chi. Cubs 4.46 3.68 0.64 0.64 0.20 0.04 0.22 0.62 0.59 0.08 0.11 0.84 0.301
2016-04-15 St. Louis 4.44 3.52 0.78 0.62 0.14 0.02 0.18 0.54 0.44 0.07 0.11 0.88 0.273
2016-04-16 St. Louis 4.43 3.55 0.76 0.67 0.16 0.04 0.18 0.63 0.41 0.09 0.10 0.72 0.293
2016-04-17 St. Louis 4.47 3.57 0.78 0.70 0.19 0.01 0.17 0.63 0.42 0.13 0.10 0.72 0.301
2016-04-18 Colorado 4.47 3.70 0.70 0.66 0.21 0.02 0.06 0.53 0.36 0.07 0.05 0.68 0.247
2016-04-19 Colorado 4.44 3.61 0.71 0.71 0.24 0.02 0.12 0.73 0.48 0.07 0.11 0.73 0.293
2016-04-20 Colorado 4.42 3.68 0.67 0.71 0.30 0.00 0.08 0.61 0.42 0.08 0.04 0.68 0.284
2016-04-21 Chi. Cubs 4.34 3.69 0.57 0.64 0.18 0.02 0.19 0.54 0.64 0.05 0.06 0.79 0.275
2016-04-22 Chi. Cubs 4.31 3.69 0.51 0.67 0.17 0.00 0.13 0.45 0.50 0.05 0.07 0.65 0.257
2016-04-23 Chi. Cubs 4.32 3.74 0.46 0.70 0.23 0.00 0.15 0.49 0.57 0.07 0.06 0.66 0.281
2016-04-24 Chi. Cubs 4.34 3.80 0.47 0.60 0.21 0.00 0.15 0.41 0.56 0.05 0.03 0.67 0.252
2016-04-25 N.Y. Mets 4.42 3.86 0.50 0.61 0.25 0.01 0.14 0.48 0.49 0.06 0.03 0.75 0.256
2016-04-26 N.Y. Mets 4.44 3.97 0.39 0.77 0.23 0.00 0.14 0.46 0.45 0.02 0.02 0.67 0.277
2016-04-27 N.Y. Mets 4.39 3.87 0.44 0.68 0.30 0.00 0.20 0.51 0.60 0.03 0.04 0.68 0.295
2016-04-29 Pittsburgh 4.51 3.88 0.62 0.63 0.14 0.01 0.08 0.38 0.43 0.01 0.00 0.84 0.210
2016-04-30 Pittsburgh 4.49 3.80 0.59 0.64 0.15 0.01 0.11 0.43 0.54 0.02 0.04 0.74 0.231
Date Opponent PA AB BB 1B 2B 3B HR R RBI SB HBP SO AVG
2016-05-01 Pittsburgh 4.53 3.77 0.67 0.66 0.28 0.02 0.12 0.49 0.59 0.00 0.04 0.67 0.272
2016-05-02 San Francisco 4.40 3.88 0.45 0.68 0.17 0.02 0.06 0.45 0.44 0.09 0.04 0.64 0.221
2016-05-03 San Francisco 4.34 3.84 0.42 0.69 0.21 0.03 0.10 0.53 0.52 0.03 0.02 0.61 0.251
2016-05-04 San Francisco 4.38 3.92 0.41 0.66 0.18 0.04 0.11 0.60 0.49 0.03 0.01 0.67 0.237
2016-05-05 Milwaukee 4.44 3.85 0.49 0.86 0.23 0.04 0.07 0.65 0.51 0.08 0.04 0.49 0.289
2016-05-06 Milwaukee 4.44 3.48 0.79 0.68 0.20 0.01 0.14 0.70 0.44 0.10 0.09 0.55 0.279
2016-05-07 Milwaukee 4.46 3.66 0.71 0.58 0.20 0.03 0.18 0.69 0.46 0.04 0.06 0.93 0.261
2016-05-08 Milwaukee 4.47 3.68 0.65 0.62 0.25 0.03 0.15 0.69 0.43 0.06 0.07 0.77 0.274
2016-05-09 Pittsburgh 4.43 3.75 0.61 0.68 0.20 0.01 0.11 0.59 0.55 0.07 0.04 0.87 0.257
2016-05-13 Philadelphia 4.57 3.81 0.67 0.69 0.13 0.04 0.22 0.61 0.61 0.08 0.03 0.83 0.268
2016-05-14 Philadelphia 4.52 3.89 0.56 0.74 0.13 0.01 0.19 0.55 0.53 0.05 0.04 0.81 0.256
2016-05-15 Philadelphia 4.57 3.92 0.59 0.71 0.19 0.02 0.17 0.49 0.54 0.03 0.01 0.76 0.261
2016-05-16 Cleveland 4.49 3.85 0.59 0.45 0.30 0.02 0.24 0.68 0.70 0.08 0.03 0.79 0.257
2016-05-17 Cleveland 4.42 3.82 0.56 0.53 0.17 0.03 0.20 0.59 0.57 0.12 0.00 1.00 0.237
2016-05-18 Cleveland 4.41 3.74 0.63 0.52 0.30 0.02 0.24 0.69 0.71 0.06 0.01 0.84 0.284
2016-05-19 Cleveland 4.38 3.78 0.54 0.52 0.23 0.00 0.21 0.66 0.59 0.05 0.04 0.97 0.249
2016-05-20 Seattle 4.36 3.72 0.57 0.37 0.28 0.01 0.15 0.52 0.52 0.05 0.04 0.93 0.216
2016-05-21 Seattle 4.37 3.70 0.61 0.44 0.20 0.03 0.16 0.62 0.61 0.08 0.03 0.89 0.221
2016-05-22 Seattle 4.41 3.76 0.59 0.43 0.28 0.00 0.17 0.54 0.53 0.03 0.04 1.03 0.236
2016-05-23 L.A. Dodgers 4.36 3.90 0.38 0.61 0.15 0.02 0.09 0.36 0.37 0.05 0.03 1.11 0.219
2016-05-24 L.A. Dodgers 4.58 3.87 0.67 0.52 0.22 0.01 0.15 0.59 0.45 0.07 0.03 0.99 0.234
2016-05-25 L.A. Dodgers 4.46 3.86 0.50 0.50 0.24 0.01 0.19 0.54 0.49 0.07 0.07 0.96 0.242
2016-05-27 Milwaukee 4.73 3.86 0.77 0.58 0.27 0.02 0.13 0.63 0.48 0.08 0.08 0.90 0.254
2016-05-28 Milwaukee 4.69 4.01 0.57 0.64 0.25 0.02 0.14 0.56 0.44 0.04 0.04 0.92 0.260
2016-05-29 Milwaukee 4.68 4.06 0.53 0.61 0.26 0.02 0.16 0.60 0.46 0.07 0.04 0.96 0.258
2016-05-30 Colorado 4.64 3.97 0.57 0.67 0.20 0.02 0.11 0.75 0.62 0.06 0.06 0.99 0.256
2016-05-31 Colorado 4.69 4.04 0.59 0.64 0.17 0.02 0.09 0.64 0.48 0.02 0.03 0.96 0.228
Date Opponent PA AB BB 1B 2B 3B HR R RBI SB HBP SO AVG
2016-06-01 Colorado 4.56 3.91 0.58 0.68 0.19 0.02 0.12 0.87 0.72 0.03 0.04 0.81 0.258
2016-06-02 Colorado 4.75 4.12 0.55 0.63 0.19 0.04 0.16 0.94 0.76 0.03 0.04 0.86 0.248
2016-06-03 Washington 4.46 3.84 0.51 0.53 0.12 0.01 0.11 0.42 0.43 0.05 0.04 1.04 0.203
2016-06-04 Washington 4.45 3.81 0.56 0.52 0.22 0.01 0.13 0.54 0.35 0.04 0.03 0.96 0.229
2016-06-05 Washington 4.46 4.01 0.40 0.56 0.21 0.02 0.11 0.60 0.41 0.09 0.04 1.12 0.221
2016-06-07 St. Louis 4.48 3.86 0.55 0.56 0.19 0.01 0.04 0.53 0.30 0.05 0.04 1.03 0.212
2016-06-08 St. Louis 4.50 3.86 0.51 0.66 0.18 0.01 0.07 0.41 0.50 0.13 0.06 1.01 0.237
2016-06-09 St. Louis 4.50 4.01 0.40 0.52 0.24 0.01 0.08 0.53 0.36 0.08 0.06 0.94 0.211
2016-06-10 Oakland 4.54 3.88 0.59 0.47 0.17 0.01 0.17 0.55 0.60 0.06 0.02 0.91 0.204
2016-06-11 Oakland 4.56 3.95 0.54 0.63 0.21 0.01 0.20 0.68 0.53 0.04 0.02 0.91 0.264
2016-06-12 Oakland 4.56 3.96 0.53 0.57 0.22 0.01 0.18 0.68 0.59 0.07 0.03 0.88 0.248
2016-06-13 Atlanta 4.75 4.00 0.67 0.62 0.14 0.01 0.12 0.58 0.46 0.11 0.04 0.85 0.218
2016-06-14 Atlanta 4.66 4.02 0.57 0.66 0.22 0.00 0.18 0.70 0.48 0.06 0.02 0.85 0.259
2016-06-15 Atlanta 4.68 3.99 0.60 0.66 0.15 0.01 0.16 0.65 0.56 0.09 0.05 0.84 0.240
2016-06-16 Atlanta 4.70 3.97 0.65 0.63 0.23 0.00 0.17 0.67 0.50 0.09 0.02 0.90 0.257
2016-06-17 Houston 4.55 3.89 0.62 0.55 0.16 0.04 0.09 0.52 0.45 0.10 0.01 1.13 0.216
2016-06-18 Houston 4.55 4.01 0.46 0.56 0.19 0.04 0.09 0.45 0.51 0.05 0.06 1.08 0.220
2016-06-19 Houston 4.55 4.00 0.45 0.43 0.22 0.02 0.15 0.49 0.41 0.02 0.05 0.99 0.206
2016-06-24 San Diego 4.58 3.94 0.60 0.57 0.27 0.01 0.07 0.49 0.36 0.08 0.02 0.99 0.229
2016-06-25 San Diego 4.52 3.60 0.82 0.62 0.22 0.01 0.10 0.55 0.47 0.13 0.07 0.97 0.258
2016-06-26 San Diego 4.54 3.92 0.51 0.49 0.27 0.04 0.16 0.59 0.65 0.04 0.07 0.92 0.240
2016-06-27 Chi. Cubs 4.33 3.72 0.55 0.66 0.15 0.01 0.13 0.44 0.49 0.13 0.03 1.03 0.250
2016-06-28 Chi. Cubs 4.44 3.71 0.60 0.39 0.13 0.02 0.12 0.44 0.37 0.10 0.09 1.16 0.180
2016-06-29 Chi. Cubs 4.34 3.74 0.55 0.56 0.17 0.02 0.10 0.52 0.46 0.09 0.03 1.01 0.224
Date Opponent PA AB BB 1B 2B 3B HR R RBI SB HBP SO AVG
2016-07-01 Washington 4.55 4.06 0.43 0.52 0.26 0.02 0.08 0.46 0.44 0.08 0.04 1.07 0.215
2016-07-02 Washington 4.55 3.98 0.49 0.44 0.31 0.02 0.07 0.45 0.40 0.07 0.05 0.95 0.211
2016-07-03 Washington 4.59 4.03 0.52 0.51 0.24 0.00 0.16 0.59 0.41 0.11 0.02 1.02 0.228
2016-07-04 Chi. Cubs 4.52 3.83 0.65 0.58 0.19 0.02 0.11 0.60 0.51 0.11 0.04 0.96 0.231
2016-07-05 Chi. Cubs 4.48 3.85 0.59 0.48 0.18 0.01 0.10 0.41 0.35 0.07 0.02 1.02 0.202
2016-07-06 Chi. Cubs 4.56 3.80 0.70 0.51 0.21 0.01 0.11 0.53 0.33 0.10 0.03 0.92 0.220
2016-07-08 Miami 4.53 3.82 0.63 0.54 0.23 0.02 0.12 0.50 0.41 0.08 0.02 0.96 0.234

Statlines By Game

Date Opponent PA AB BB 1B 2B 3B HR R RBI SB HBP SO AVG
2016-04-04 Philadelphia 4 4 0 1 0 0 0 1 2 0 0 3 0.250
2016-04-06 Philadelphia 4 4 0 0 0 0 0 0 0 0 0 0 0.000
2016-04-07 Philadelphia 5 4 1 1 0 0 0 2 0 0 0 1 0.250
2016-04-08 Pittsburgh 5 4 1 0 0 0 0 0 1 0 0 1 0.000
2016-04-09 Pittsburgh 4 3 1 2 0 0 0 0 0 0 0 1 0.667
2016-04-10 Pittsburgh 4 4 0 0 0 0 0 0 0 0 0 0 0.000
2016-04-11 Chi. Cubs 4 4 0 2 0 0 0 0 0 0 0 1 0.500
2016-04-13 Chi. Cubs 4 3 1 1 0 0 0 0 0 0 0 1 0.333
2016-04-14 Chi. Cubs 4 3 1 1 0 0 0 0 0 0 0 0 0.333
2016-04-15 St. Louis 4 4 0 0 0 0 1 1 3 0 0 0 0.250
2016-04-16 St. Louis 5 4 1 0 1 0 0 1 0 0 0 0 0.250
2016-04-17 St. Louis 4 3 0 0 0 0 0 0 1 0 0 1 0.000
2016-04-18 Colorado 4 3 1 0 0 0 0 0 0 0 0 0 0.000
2016-04-19 Colorado 4 4 0 0 0 0 0 0 0 0 0 2 0.000
2016-04-20 Colorado 4 4 0 0 0 0 0 0 0 0 0 3 0.000
2016-04-21 Chi. Cubs 3 3 0 0 0 0 0 0 0 0 0 0 0.000
2016-04-22 Chi. Cubs 4 3 0 1 0 0 0 0 0 0 1 0 0.333
2016-04-23 Chi. Cubs 5 5 0 1 0 0 1 1 2 0 0 1 0.400
2016-04-24 Chi. Cubs 3 2 1 1 0 0 0 0 0 0 0 1 0.500
2016-04-25 N.Y. Mets 4 4 0 1 0 0 0 0 1 0 0 2 0.250
2016-04-26 N.Y. Mets 4 1 2 0 0 0 0 0 1 0 0 1 0.000
2016-04-27 N.Y. Mets 4 4 0 2 0 0 0 0 0 0 0 2 0.500
2016-04-29 Pittsburgh 4 3 1 2 0 0 0 0 0 0 0 1 0.667
2016-04-30 Pittsburgh 4 3 1 0 0 0 0 0 0 0 0 1 0.000
Date Opponent PA AB BB 1B 2B 3B HR R RBI SB HBP SO AVG
2016-05-01 Pittsburgh 5 4 1 1 0 0 0 1 1 1 0 2 0.250
2016-05-02 San Francisco 4 4 0 0 0 0 1 1 3 0 0 1 0.250
2016-05-03 San Francisco 4 2 1 0 0 0 0 0 0 0 1 2 0.000
2016-05-04 San Francisco 4 4 0 0 1 0 0 1 0 0 0 0 0.250
2016-05-05 Milwaukee 4 1 3 0 0 0 0 2 0 0 0 0 0.000
2016-05-06 Milwaukee 4 2 2 0 0 0 1 2 1 0 0 1 0.500
2016-05-07 Milwaukee 5 5 0 1 0 0 0 0 2 0 0 3 0.200
2016-05-08 Milwaukee 4 4 0 1 0 0 0 0 1 0 0 2 0.250
2016-05-09 Pittsburgh 4 2 1 0 0 0 1 1 1 0 1 0 0.500
2016-05-11 Pittsburgh 1 0 1 0 0 0 0 0 0 0 0 0 0.000
2016-05-13 Philadelphia 4 3 0 0 0 0 0 0 0 0 1 2 0.000
2016-05-14 Philadelphia 4 2 2 0 0 0 0 0 0 0 0 1 0.000
2016-05-15 Philadelphia 5 5 0 0 0 0 0 0 0 0 0 3 0.000
2016-05-16 Cleveland 4 3 1 0 1 0 0 2 0 0 0 0 0.333
2016-05-17 Cleveland 3 3 0 0 0 0 0 0 0 0 0 1 0.000
2016-05-18 Cleveland 6 4 2 0 1 0 0 1 2 0 0 2 0.250
2016-05-19 Cleveland 4 4 0 0 0 0 1 1 2 0 0 2 0.250
2016-05-20 Seattle 4 3 1 0 0 0 0 1 0 0 0 0 0.000
2016-05-21 Seattle 4 4 0 0 0 0 0 0 0 0 0 2 0.000
2016-05-22 Seattle 4 4 0 1 0 0 0 1 0 0 0 0 0.250
2016-05-23 L.A. Dodgers 3 2 1 0 0 0 0 0 0 0 0 1 0.000
2016-05-24 L.A. Dodgers 4 4 0 0 1 0 0 0 0 0 0 1 0.250
2016-05-25 L.A. Dodgers 4 4 0 1 0 0 0 0 0 0 0 2 0.250
2016-05-27 Milwaukee 4 4 0 0 0 0 1 1 1 0 0 1 0.250
2016-05-28 Milwaukee 5 5 0 1 1 0 0 2 1 0 0 1 0.400
2016-05-29 Milwaukee 4 4 0 0 0 0 0 0 0 0 0 1 0.000
2016-05-30 Colorado 5 5 0 0 1 0 1 1 3 0 0 2 0.400
2016-05-31 Colorado 4 4 0 0 0 0 1 1 1 0 0 1 0.250
Date Opponent PA AB BB 1B 2B 3B HR R RBI SB HBP SO AVG
2016-06-01 Colorado 5 3 2 1 0 0 0 0 1 1 0 1 0.333
2016-06-02 Colorado 5 4 1 1 1 0 0 2 0 0 0 1 0.500
2016-06-03 Washington 4 4 0 0 1 0 0 0 0 1 0 2 0.250
2016-06-04 Washington 4 3 1 0 0 0 1 2 2 0 0 0 0.333
2016-06-05 Washington 5 3 2 0 0 0 0 1 0 0 0 1 0.000
2016-06-07 St. Louis 5 5 0 0 1 0 1 1 1 1 0 2 0.400
2016-06-08 St. Louis 4 4 0 1 1 0 0 1 1 0 0 1 0.500
2016-06-09 St. Louis 4 2 1 0 0 0 0 1 0 0 1 0 0.000
2016-06-10 Oakland 4 3 1 0 0 0 0 0 0 0 0 0 0.000
2016-06-11 Oakland 4 3 1 1 0 0 0 1 0 0 0 0 0.333
2016-06-12 Oakland 4 4 0 2 0 0 0 0 0 0 0 2 0.500
2016-06-13 Atlanta 5 3 2 1 1 0 0 2 0 0 0 1 0.667
2016-06-14 Atlanta 4 2 2 0 0 0 0 1 0 0 0 0 0.000
2016-06-15 Atlanta 7 5 2 2 0 0 0 1 1 1 0 3 0.400
2016-06-16 Atlanta 5 4 1 3 0 0 0 0 0 0 0 0 0.750
2016-06-17 Houston 5 4 1 1 0 0 0 0 0 0 0 1 0.250
2016-06-18 Houston 5 5 0 1 0 0 0 1 0 0 0 2 0.200
2016-06-19 Houston 4 4 0 1 0 0 0 0 0 0 0 0 0.250
2016-06-23 San Diego 1 1 0 0 0 0 0 0 0 0 0 1 0.000
2016-06-24 San Diego 5 3 2 0 0 0 0 1 0 0 0 2 0.000
2016-06-25 San Diego 4 4 0 1 0 0 0 0 0 0 0 1 0.250
2016-06-26 San Diego 4 3 1 1 0 0 0 0 0 0 0 0 0.333
2016-06-27 Chi. Cubs 5 4 1 0 0 0 2 3 3 1 0 0 0.500

DFS Performance

  FanDuel DraftKings FantasyFeud DraftDay FantasyAces FantasyScore Yahoo
Date Opponent FP Value FP Value FP Value FP Value FP Value FP Value FP Value
2016-04-04 Philadelphia 13.2 3.4 9 2 5.25 0.7 17 1.5 3.25 0.6 4 0.6 8
2016-04-06 Philadelphia 0 0 0 0 0 0 -4 -0.3 0 0 0 0 0 0
2016-04-07 Philadelphia 12.4 3.2 9 2.1 4.75 0.6 17 1.5 4 0.8 4 0.6 8
2016-04-08 Pittsburgh 6.5 1.7 4 0.9 2.5 0.3 6 0.5 1.75 0.3 2 0.3 4
2016-04-09 Pittsburgh 9 2.4 8 1.7 3 0.4 14 1.3 2.5 0.5 3 0.5 6
2016-04-10 Pittsburgh 0 0 0 0 0 0 -4 -0.4 0 0 0 0 0 0
2016-04-11 Chi. Cubs 6 1.6 6 1.4 2 0.3 8 0.8 1.5 0.3 2 0.3 4
2016-04-13 Chi. Cubs 6 1.6 5 1.1 1.75 0.2 8 0.8 1.5 0.3 2 0.3 4
2016-04-14 Chi. Cubs 6 1.6 5 1 2.25 0.3 8 0.8 2 0.4 2 0.3 4
2016-04-15 St. Louis 25.7 6.9 18 4.3 11.5 1.6 37 3.9 9 1.8 8 1.3 16
2016-04-16 St. Louis 12.2 3.3 9 2.1 4.5 0.6 17 1.8 4.25 0.9 4 0.6 8
2016-04-17 St. Louis 3.5 0.9 2 0.4 1.5 0.2 2 0.2 0.75 0.2 1 0.2 2
2016-04-18 Colorado 3 0.8 2 0.5 1 0.1 2 0.2 1 0.2 1 0.2 2
2016-04-19 Colorado 0 0 0 0 -1 -0.1 -4 -0.4 -1 -0.2 0 0 0 0
2016-04-20 Colorado 0 0 0 0 -1.5 -0.2 -4 -0.4 -1.5 -0.3 0 0 0 0
2016-04-21 Chi. Cubs 0 0 0 0 0 0 -3 -0.3 0 0 0 0 0 0
2016-04-22 Chi. Cubs 6 1.7 5 1.2 2.25 0.4 8 0.9 1.5 0.3 2 0.3 2
2016-04-23 Chi. Cubs 25.2 7.4 19 4.5 10.25 1.5 37 4.2 8.25 1.7 8 1.3 16
2016-04-24 Chi. Cubs 6 1.8 5 1.2 1.75 0.3 9 1 1.5 0.3 2 0.3 4
2016-04-25 N.Y. Mets 6.5 1.8 5 1.2 2.25 0.3 7 0.8 1.25 0.3 2 0.3 4
2016-04-26 N.Y. Mets 9.5 2.7 6 1.8 3.5 0.5 14 1.5 2.75 0.6 3 0.5 6
2016-04-27 N.Y. Mets 6 1.7 6 1.8 1.5 0.2 8 0.9 1 0.2 2 0.3 4
2016-04-29 Pittsburgh 9 2.8 8 2.3 3 0.5 14 1.6 2.5 0.5 3 0.5 6
2016-04-30 Pittsburgh 3 0.9 2 0.5 0.5 0.1 2 0.2 0.5 0.1 1 0.2 2
  FanDuel DraftKings FantasyFeud DraftDay FantasyAces FantasyScore Yahoo
Date Opponent FP Value FP Value FP Value FP Value FP Value FP Value FP Value
2016-05-01 Pittsburgh 18.7 5.7 14 3.8 6.75 0.9 22 2.5 5.5 1.1 6 1 12
2016-05-02 San Francisco 25.7 8 18 4.5 11 1.7 37 4.3 8.5 1.7 8 1.3 16
2016-05-03 San Francisco 6 1.8 4 0.9 1 0.2 8 1 0.5 0.1 2 0.3 2
2016-05-04 San Francisco 9.2 2.6 7 1.6 3.5 0.5 12 1.3 3.25 0.7 3 0.5 6
2016-05-05 Milwaukee 15.4 4.3 10 2.2 6 0.8 24 2.7 5.5 1.1 5 0.8 10
2016-05-06 Milwaukee 27.9 8 20 5 10.5 1.5 44 4.8 9.25 1.9 9 1.4 18
2016-05-07 Milwaukee 10 2.8 7 1.4 3.75 0.5 11 1.2 2 0.4 3 0.5 6
2016-05-08 Milwaukee 6.5 1.8 5 1.1 2.25 0.3 7 0.7 1.25 0.3 2 0.3 4
2016-05-09 Pittsburgh 24.7 6.5 18 4 9.5 1.2 39 4 8 1.6 8 1.3 14
2016-05-11 Pittsburgh 3 0.8 2 0.5 1 0.1 5 0.5 1 0.2 1 0.2 2
2016-05-13 Philadelphia 3 0.8 2 0.5 0 0 2 0.2 -0.5 -0.1 1 0.2 0 0
2016-05-14 Philadelphia 6 1.5 4 0.9 0.5 0.1 8 0.8 1.5 0.3 1 0.2 4
2016-05-15 Philadelphia 0 0 0 0 -1.5 -0.2 -5 -0.5 -1.5 -0.3 0 0 0 0
2016-05-16 Cleveland 15.4 4.1 11 2.2 6 0.8 23 2.4 5.5 1.1 5 0.8 10
2016-05-17 Cleveland 0 0 0 0 -0.5 -0.1 -3 -0.3 -0.5 -0.1 0 0 0 0
2016-05-18 Cleveland 22.2 6.2 15 3.8 8.5 1.3 32 3.3 6.75 1.4 7 1.1 14
2016-05-19 Cleveland 22.2 6.2 16 3.7 8.5 1.2 32 3.4 6.75 1.4 7 1.1 14
2016-05-20 Seattle 6.2 1.6 4 1 2.5 0.4 7 0.7 2.25 0.5 2 0.3 4
2016-05-21 Seattle 0 0 0 0 -1 -0.2 -4 -0.4 -1 -0.2 0 0 0 0
2016-05-22 Seattle 6.2 1.6 5 1.7 2.75 0.5 7 0.7 2.25 0.5 2 0.3 4
2016-05-23 L.A. Dodgers 3 0.9 2 0.7 0.5 0.1 3 0.4 0.5 0.1 1 0.2 2
2016-05-24 L.A. Dodgers 6 1.7 5 1.3 1.5 0.3 7 0.8 1.5 0.3 2 0.3 4
2016-05-25 L.A. Dodgers 3 0.9 3 0.9 0.25 0 2 0.2 0 0 1 0.2 2
2016-05-27 Milwaukee 18.7 5.7 14 3.4 7 1.2 27 2.8 6 1.2 6 1 12
2016-05-28 Milwaukee 18.9 5.7 14 3.8 7.75 1.4 27 2.8 6.25 1.3 6 1 12
2016-05-29 Milwaukee 0 0 0 0 -0.5 -0.1 -4 -0.4 -0.5 -0.1 0 0 0 0
2016-05-30 Colorado 31.7 7.9 23 5.3 12.5 1.7 47 4 10 1.8 10 1.6 20
2016-05-31 Colorado 18.7 4.9 14 3.3 7 0.9 27 2.3 6 1.1 6 1 12
  FanDuel DraftKings FantasyFeud DraftDay FantasyAces FantasyScore Yahoo
Date Opponent FP Value FP Value FP Value FP Value FP Value FP Value FP Value
2016-06-01 Colorado 18.5 4.6 14 3 6.75 0.9 23 1.9 5.75 1 6 1 12
2016-06-02 Colorado 18.4 4.5 14 2.8 6.75 0.9 28 2.3 6 1.2 6 1 12
2016-06-03 Washington 12 3.4 10 2.9 3 0.4 12 1.2 3 0.6 4 0.6 8
2016-06-04 Washington 28.4 8.6 20 4.8 12 1.8 43 4.3 10 1.9 9 1.4 18
2016-06-05 Washington 9.2 2.7 6 1.4 3 0.5 12 1.2 2.75 0.5 3 0.5 6
2016-06-07 St. Louis 30.7 9 24 5.1 10.5 1.4 42 4.1 9.5 1.8 10 1.6 20
2016-06-08 St. Louis 15.7 4.8 12 2.3 6.25 0.8 23 2.3 5 1 5 0.8 10
2016-06-09 St. Louis 9.2 2.7 6 1.2 3.5 0.4 13 1.3 2.75 0.5 3 0.5 4
2016-06-10 Oakland 3 0.9 2 0.4 1 0.1 2 0.2 1 0.2 1 0.2 2
2016-06-11 Oakland 9.2 2.6 7 1.4 3.75 0.4 13 1.3 3.25 0.6 3 0.5 6
2016-06-12 Oakland 6 1.7 6 1.3 1.5 0.2 8 0.8 1 0.2 2 0.3 4
2016-06-13 Atlanta 21.4 6.3 16 4.1 7.75 1 34 3.8 7 1.4 7 1.1 14
2016-06-14 Atlanta 9.2 2.6 6 1.4 3.5 0.5 13 1.4 3.25 0.7 3 0.5 6
2016-06-15 Atlanta 24.7 7.1 19 4 8.5 1.1 32 3.5 7 1.4 8 1.2 16
2016-06-16 Atlanta 12 3.3 11 2.7 4.75 0.6 19 2.1 4 0.8 4 0.6 8
2016-06-17 Houston 6 1.6 5 1.2 1.75 0.2 7 0.7 1.5 0.3 2 0.3 4
2016-06-18 Houston 6.2 1.7 5 1.2 1.75 0.2 6 0.6 1.25 0.3 2 0.3 4
2016-06-19 Houston 3 0.8 3 0.7 1.25 0.2 2 0.2 1 0.2 1 0.2 2
2016-06-23 San Diego 0 0 0 0 -0.5 -0.1 -1 -0.1 -0.5 -0.1 0 0 0 0
2016-06-24 San Diego 9.2 2.7 6 1.5 2.5 0.4 12 1.2 2.25 0.5 3 0.5 6
2016-06-25 San Diego 3 0.9 3 0.6 0.75 0.1 2 0.2 0.5 0.1 1 0.2 2
2016-06-26 San Diego 6 1.8 5 1.4 2.25 0.3 8 0.8 2 0.4 2 0.3 4
2016-06-27 Chi. Cubs 53.1 24.1 39 11.5 21.5 3.6 78 7.6 18.5 3.7 17 2.6 34

Player History

Year Age Team G PA H HR RBI SB BA
2016 32 Cincinnati 76 320 64 13 39 6 0.242
2015 31 Cincinnati 158 695 171 29 80 11 0.314
2014 30 Cincinnati 62 272 56 6 23 1 0.255
2013 29 Cincinnati 162 726 177 24 73 6 0.305
2012 28 Cincinnati 111 475 126 14 56 5 0.337
2011 27 Cincinnati 161 719 185 29 103 8 0.309
2010 26 Cincinnati 150 648 177 37 113 16 0.324
2009 25 Cincinnati 131 544 151 25 84 4 0.322
2008 24 Cincinnati 151 589 156 24 84 7 0.297
2007 23 Cincinnati 24 89 27 4 17 1 0.321
Similar Players

Similar Players

Sorry! We don't enough data on this player to make significant comparisons. This is likely due to the fact that this player is new to the league, or is an unknown commodity in terms of talent.